createdAt,value
2023-02-11T00:01:35.537Z,100573.40
2023-02-11T00:04:06.438Z,100564.60
2023-02-11T00:06:36.294Z,100560.00
2023-02-11T00:09:05.352Z,100549.00
2023-02-11T00:11:33.185Z,100547.80
2023-02-11T00:14:07.745Z,100544.00
2023-02-11T00:16:35.515Z,100537.60
2023-02-11T00:19:06.350Z,100527.80
2023-02-11T00:21:35.736Z,100521.20
2023-02-11T00:24:04.347Z,100517.80
2023-02-11T00:26:35.832Z,100511.20
2023-02-11T00:29:05.753Z,100506.00
2023-02-11T00:31:34.058Z,100507.00
2023-02-11T00:34:02.048Z,100513.20
2023-02-11T00:36:30.680Z,100510.40
2023-02-11T00:38:59.631Z,100507.80
2023-02-11T00:41:27.399Z,100495.40
2023-02-11T00:43:55.375Z,100483.80
2023-02-11T00:46:23.649Z,100493.00
2023-02-11T00:48:55.105Z,100488.60
2023-02-11T00:51:23.584Z,100481.00
2023-02-11T00:53:52.077Z,100471.60
2023-02-11T00:56:20.416Z,100462.00
2023-02-11T00:58:48.565Z,100462.00
2023-02-11T01:01:16.582Z,100451.40
2023-02-11T01:03:44.425Z,100451.60
2023-02-11T01:06:12.537Z,100450.20
2023-02-11T01:08:40.529Z,100451.80
2023-02-11T01:11:15.301Z,100443.20
2023-02-11T01:13:44.710Z,100447.40
2023-02-11T01:16:13.389Z,100446.40
2023-02-11T01:18:44.212Z,100447.60
2023-02-11T01:21:12.602Z,100442.80
2023-02-11T01:23:40.500Z,100428.40
2023-02-11T01:26:08.218Z,100423.60
2023-02-11T01:28:36.132Z,100422.00
2023-02-11T01:31:04.747Z,100411.40
2023-02-11T01:33:32.710Z,100411.40
2023-02-11T01:36:04.046Z,100418.80
2023-02-11T01:38:32.991Z,100420.40
2023-02-11T01:41:09.116Z,100418.00
2023-02-11T01:43:42.013Z,100414.20
2023-02-11T01:46:37.519Z,100422.20
2023-02-11T01:49:21.389Z,100412.60
2023-02-11T01:51:55.451Z,100412.80
2023-02-11T01:54:46.662Z,100401.80
2023-02-11T01:57:22.075Z,100400.40
2023-02-11T02:00:07.896Z,100395.80
2023-02-11T02:02:50.874Z,100389.40
2023-02-11T02:05:51.548Z,100391.20
2023-02-11T02:08:25.319Z,100393.20
2023-02-11T02:10:56.510Z,100381.60
2023-02-11T02:13:25.176Z,100376.60
2023-02-11T02:16:07.885Z,100362.80
2023-02-11T02:19:10.933Z,100352.60
2023-02-11T02:22:33.289Z,100345.00
2023-02-11T02:25:36.076Z,100347.40
2023-02-11T02:29:14.220Z,100345.00
2023-02-11T02:32:30.090Z,100332.40
2023-02-11T02:35:29.617Z,100334.80
2023-02-11T02:38:16.091Z,100330.00
2023-02-11T02:41:10.794Z,100332.60
2023-02-11T02:43:44.576Z,100343.00
2023-02-11T02:46:27.426Z,100335.60
2023-02-11T02:48:57.335Z,100316.60
2023-02-11T02:51:52.240Z,100317.20
2023-02-11T02:54:44.948Z,100312.40
2023-02-11T02:57:43.676Z,100302.00
2023-02-11T03:01:00.317Z,100294.40
2023-02-11T03:03:47.576Z,100287.40
2023-02-11T03:06:36.168Z,100280.80
2023-02-11T03:09:12.990Z,100269.40
2023-02-11T03:11:40.848Z,100266.80
2023-02-11T03:14:15.437Z,100266.40
2023-02-11T03:16:46.032Z,100261.60
2023-02-11T03:19:28.654Z,100257.00
2023-02-11T03:21:58.112Z,100263.20
2023-02-11T03:24:34.890Z,100253.80
2023-02-11T03:27:46.456Z,100246.80
2023-02-11T03:30:27.916Z,100240.00
2023-02-11T03:33:18.944Z,100230.40
2023-02-11T03:35:58.566Z,100224.40
2023-02-11T03:38:39.877Z,100230.60
2023-02-11T03:41:09.995Z,100226.40
2023-02-11T03:43:45.229Z,100218.80
2023-02-11T03:46:18.705Z,100216.20
2023-02-11T03:48:57.902Z,100205.20
2023-02-11T03:51:27.729Z,100203.00
2023-02-11T03:54:01.333Z,100189.20
2023-02-11T03:56:37.683Z,100193.20
2023-02-11T03:59:05.362Z,100189.60
2023-02-11T04:01:33.173Z,100180.40
2023-02-11T04:04:00.950Z,100167.40
2023-02-11T04:06:28.638Z,100165.60
2023-02-11T04:08:56.518Z,100168.80
2023-02-11T04:11:24.146Z,100174.40
2023-02-11T04:13:51.904Z,100181.40
2023-02-11T04:16:19.765Z,100169.60
2023-02-11T04:18:47.775Z,100163.00
2023-02-11T04:21:15.431Z,100168.00
2023-02-11T04:23:43.143Z,100171.60
2023-02-11T04:26:10.886Z,100173.00
2023-02-11T04:28:38.520Z,100182.20
2023-02-11T04:31:06.366Z,100189.80
2023-02-11T04:33:34.296Z,100182.40
2023-02-11T04:36:01.974Z,100175.80
2023-02-11T04:38:29.707Z,100169.40
2023-02-11T04:40:58.228Z,100163.00
2023-02-11T04:43:26.017Z,100153.00
2023-02-11T04:45:58.717Z,100155.00
2023-02-11T04:48:26.845Z,100164.40
2023-02-11T04:50:54.547Z,100164.60
2023-02-11T04:53:22.423Z,100165.60
2023-02-11T04:55:51.468Z,100177.60
2023-02-11T04:58:20.239Z,100174.00
2023-02-11T05:00:48.282Z,100180.80
2023-02-11T05:03:16.875Z,100180.20
2023-02-11T05:05:44.600Z,100185.00
2023-02-11T05:08:12.552Z,100185.20
2023-02-11T05:10:40.217Z,100185.00
2023-02-11T05:13:08.033Z,100188.60
2023-02-11T05:15:35.693Z,100188.40
2023-02-11T05:18:03.536Z,100172.40
2023-02-11T05:20:31.155Z,100179.40
2023-02-11T05:22:58.966Z,100169.40
2023-02-11T05:25:26.641Z,100154.40
2023-02-11T05:27:54.295Z,100150.00
2023-02-11T05:30:22.311Z,100146.60
2023-02-11T05:32:50.104Z,100134.20
2023-02-11T05:35:17.995Z,100127.80
2023-02-11T05:37:45.616Z,100125.20
2023-02-11T05:40:13.507Z,100127.60
2023-02-11T05:42:41.347Z,100111.40
2023-02-11T05:45:09.552Z,100094.60
2023-02-11T05:47:37.195Z,100087.40
2023-02-11T05:50:05.767Z,100090.40
2023-02-11T05:52:33.575Z,100099.40
2023-02-11T05:55:01.560Z,100100.00
2023-02-11T05:57:29.302Z,100094.00
2023-02-11T05:59:57.202Z,100088.40
2023-02-11T06:02:24.917Z,100081.00
2023-02-11T06:04:52.892Z,100072.20
2023-02-11T06:07:20.680Z,100068.60
2023-02-11T06:09:49.495Z,100073.60
2023-02-11T06:12:17.206Z,100075.40
2023-02-11T06:14:45.693Z,100081.60
2023-02-11T06:17:15.580Z,100083.40
2023-02-11T06:19:43.477Z,100080.80
2023-02-11T06:22:11.906Z,100085.40
2023-02-11T06:24:59.993Z,100094.60
2023-02-11T06:27:27.324Z,100093.60
2023-02-11T06:29:55.144Z,100098.80
2023-02-11T06:32:43.352Z,100107.20
2023-02-11T06:35:12.398Z,100110.20
2023-02-11T06:37:42.262Z,100104.40
2023-02-11T06:40:11.702Z,100102.20
2023-02-11T06:42:39.695Z,100100.20
2023-02-11T06:45:10.815Z,100098.60
2023-02-11T06:47:40.566Z,100090.80
2023-02-11T06:50:12.749Z,100089.20
2023-02-11T06:52:41.110Z,100090.20
2023-02-11T06:55:09.096Z,100087.60
2023-02-11T06:57:36.854Z,100068.40
2023-02-11T07:00:05.968Z,100070.00
2023-02-11T07:02:33.992Z,100063.80
2023-02-11T07:05:01.722Z,100070.20
2023-02-11T07:07:31.267Z,100059.40
2023-02-11T07:10:00.151Z,100054.20
2023-02-11T07:12:28.018Z,100050.40
2023-02-11T07:14:57.243Z,100048.40
2023-02-11T07:17:25.157Z,100045.40
2023-02-11T07:19:52.853Z,100040.40
2023-02-11T07:22:20.549Z,100039.60
2023-02-11T07:24:48.234Z,100034.80
2023-02-11T07:27:15.868Z,100031.60
2023-02-11T07:29:43.659Z,100030.20
2023-02-11T07:32:11.386Z,100021.40
2023-02-11T07:34:39.161Z,100017.00
2023-02-11T07:37:07.690Z,100023.40
2023-02-11T07:39:35.495Z,100025.60
2023-02-11T07:42:04.228Z,100025.40
2023-02-11T07:44:33.403Z,100022.40
2023-02-11T07:47:01.280Z,100031.20
2023-02-11T07:49:29.385Z,100040.20
2023-02-11T07:51:57.056Z,100042.20
2023-02-11T07:54:24.824Z,100041.20
2023-02-11T07:56:52.947Z,100052.00
2023-02-11T07:59:20.632Z,100044.80
2023-02-11T08:01:48.365Z,100039.00
2023-02-11T08:04:16.145Z,100048.60
2023-02-11T08:06:44.239Z,100049.00
2023-02-11T08:09:19.282Z,100049.40
2023-02-11T08:11:46.986Z,100054.40
2023-02-11T08:14:14.929Z,100054.60
2023-02-11T08:16:43.083Z,100053.20
2023-02-11T08:19:15.453Z,100054.00
2023-02-11T08:21:44.597Z,100048.20
2023-02-11T08:24:12.583Z,100052.00
2023-02-11T08:26:41.073Z,100045.20
2023-02-11T08:29:13.285Z,100031.40
2023-02-11T08:31:45.009Z,100022.00
2023-02-11T08:34:14.580Z,100030.40
2023-02-11T08:36:43.094Z,100046.20
2023-02-11T08:39:21.069Z,100056.80
2023-02-11T08:41:52.974Z,100063.60
2023-02-11T08:44:22.505Z,100058.80
2023-02-11T08:46:51.076Z,100058.20
2023-02-11T08:49:19.504Z,100064.80
2023-02-11T08:51:47.398Z,100060.40
2023-02-11T08:54:16.464Z,100050.60
2023-02-11T08:56:44.694Z,100039.40
2023-02-11T08:59:17.087Z,100051.20
2023-02-11T09:01:46.716Z,100039.20
2023-02-11T09:04:14.836Z,100041.80
2023-02-11T09:06:43.148Z,100048.00
2023-02-11T09:09:14.819Z,100060.60
2023-02-11T09:11:44.944Z,100070.00
2023-02-11T09:14:22.629Z,100067.20
2023-02-11T09:16:51.811Z,100063.20
2023-02-11T09:19:21.543Z,100056.00
2023-02-11T09:21:49.359Z,100059.40
2023-02-11T09:24:17.634Z,100062.00
2023-02-11T09:26:45.500Z,100047.80
2023-02-11T09:29:13.261Z,100044.00
2023-02-11T09:31:41.292Z,100043.00
2023-02-11T09:34:11.203Z,100038.40
2023-02-11T09:36:40.827Z,100026.00
2023-02-11T09:39:16.850Z,100025.40
2023-02-11T09:41:59.541Z,100026.60
2023-02-11T09:44:34.758Z,100027.40
2023-02-11T09:47:24.108Z,100034.40
2023-02-11T09:50:02.229Z,100027.00
2023-02-11T09:53:01.696Z,100019.60
2023-02-11T09:55:39.741Z,100022.20
2023-02-11T09:58:27.926Z,100019.00
2023-02-11T10:01:30.176Z,100012.80
2023-02-11T10:04:22.126Z,99991.20
2023-02-11T10:06:57.682Z,99971.00
2023-02-11T10:09:34.208Z,99961.80
2023-02-11T10:12:45.180Z,99943.00
2023-02-11T10:15:31.455Z,99940.20
2023-02-11T10:18:37.474Z,99920.20
2023-02-11T10:21:51.616Z,99901.40
2023-02-11T10:24:20.612Z,99897.60
2023-02-11T10:26:49.585Z,99897.40
2023-02-11T10:29:38.526Z,99895.20
2023-02-11T10:32:38.868Z,99909.00
2023-02-11T10:35:18.372Z,99918.80
2023-02-11T10:37:46.161Z,99923.00
2023-02-11T10:40:18.267Z,99918.80
2023-02-11T10:42:55.769Z,99907.60
2023-02-11T10:45:37.861Z,99900.60
2023-02-11T10:48:35.841Z,99900.40
2023-02-11T10:51:12.773Z,99912.80
2023-02-11T10:53:42.590Z,99926.00
2023-02-11T10:56:29.325Z,99927.80
2023-02-11T10:59:05.473Z,99915.20
2023-02-11T11:01:49.940Z,99915.40
2023-02-11T11:04:29.778Z,99915.40
2023-02-11T11:07:29.805Z,99904.80
2023-02-11T11:10:07.040Z,99900.80
2023-02-11T11:12:47.964Z,99902.20
2023-02-11T11:15:29.200Z,99897.60
2023-02-11T11:18:22.531Z,99895.40
2023-02-11T11:21:19.098Z,99893.60
2023-02-11T11:24:00.359Z,99903.00
2023-02-11T11:26:53.960Z,99901.40
2023-02-11T11:29:47.825Z,99896.00
2023-02-11T11:32:32.421Z,99900.60
2023-02-11T11:35:06.075Z,99892.20
2023-02-11T11:37:37.172Z,99887.80
2023-02-11T11:40:16.862Z,99900.00
2023-02-11T11:42:44.727Z,99893.40
2023-02-11T11:45:24.755Z,99893.60
2023-02-11T11:48:06.778Z,99891.00
2023-02-11T11:50:50.577Z,99898.60
2023-02-11T11:54:00.581Z,99905.60
2023-02-11T11:56:51.591Z,99914.00
2023-02-11T11:59:19.300Z,99919.00
2023-02-11T12:02:24.887Z,99917.60
2023-02-11T12:05:27.164Z,99916.60
2023-02-11T12:08:00.432Z,99904.40
2023-02-11T12:10:59.010Z,99897.40
2023-02-11T12:14:13.847Z,99865.80
2023-02-11T12:16:52.855Z,99860.60
2023-02-11T12:20:05.829Z,99856.20
2023-02-11T12:22:44.468Z,99856.20
2023-02-11T12:25:58.205Z,99835.80
2023-02-11T12:28:55.922Z,99826.80
2023-02-11T12:31:47.384Z,99851.80
2023-02-11T12:34:38.304Z,99860.80
2023-02-11T12:37:41.515Z,99862.60
2023-02-11T12:40:23.584Z,99875.80
2023-02-11T12:43:18.851Z,99870.00
2023-02-11T12:46:12.665Z,99867.60
2023-02-11T12:48:48.077Z,99861.40
2023-02-11T12:51:42.956Z,99854.60
2023-02-11T12:54:10.899Z,99852.00
2023-02-11T12:56:54.775Z,99841.40
2023-02-11T12:59:47.769Z,99838.00
2023-02-11T13:02:54.573Z,99832.00
2023-02-11T13:06:16.182Z,99807.40
2023-02-11T13:08:48.937Z,99777.60
2023-02-11T13:11:29.502Z,99748.80
2023-02-11T13:14:38.806Z,99745.20
2023-02-11T13:17:22.743Z,99766.80
2023-02-11T13:20:00.980Z,99798.40
2023-02-11T13:22:42.107Z,99792.20
2023-02-11T13:25:35.991Z,99785.20
2023-02-11T13:28:25.463Z,99793.60
2023-02-11T13:31:02.554Z,99800.60
2023-02-11T13:33:37.481Z,99808.20
2023-02-11T13:36:05.075Z,99826.40
2023-02-11T13:38:33.452Z,99833.20
2023-02-11T13:41:16.619Z,99830.20
2023-02-11T13:43:56.621Z,99825.60
2023-02-11T13:46:29.166Z,99821.80
2023-02-11T13:48:58.203Z,99809.60
2023-02-11T13:51:40.418Z,99821.40
2023-02-11T13:54:21.252Z,99832.00
2023-02-11T13:57:21.732Z,99838.60
2023-02-11T13:59:54.407Z,99839.80
2023-02-11T14:02:53.112Z,99838.00
2023-02-11T14:05:44.918Z,99842.20
2023-02-11T14:08:31.231Z,99846.00
2023-02-11T14:11:12.345Z,99851.00
2023-02-11T14:13:49.252Z,99852.40
2023-02-11T14:16:37.008Z,99843.60
2023-02-11T14:19:08.646Z,99838.20
2023-02-11T14:21:47.391Z,99835.80
2023-02-11T14:24:14.947Z,99846.60
2023-02-11T14:27:04.990Z,99852.60
2023-02-11T14:29:46.134Z,99855.40
2023-02-11T14:32:41.854Z,99856.40
2023-02-11T14:35:26.069Z,99864.40
2023-02-11T14:38:29.190Z,99857.80
2023-02-11T14:41:24.294Z,99853.80
2023-02-11T14:44:01.188Z,99852.00
2023-02-11T14:46:33.065Z,99850.40
2023-02-11T14:49:04.783Z,99849.60
2023-02-11T14:51:39.625Z,99845.00
2023-02-11T14:54:18.724Z,99850.80
2023-02-11T14:56:46.787Z,99860.20
2023-02-11T14:59:22.083Z,99865.60
2023-02-11T15:01:54.682Z,99862.20
2023-02-11T15:04:33.273Z,99868.80
2023-02-11T15:07:08.365Z,99868.20
2023-02-11T15:09:48.720Z,99874.80
2023-02-11T15:12:26.442Z,99875.20
2023-02-11T15:14:58.875Z,99883.00
2023-02-11T15:17:31.881Z,99881.60
2023-02-11T15:20:02.463Z,99882.80
2023-02-11T15:22:36.763Z,99894.00
2023-02-11T15:25:07.831Z,99896.40
2023-02-11T15:27:45.342Z,99893.20
2023-02-11T15:30:22.247Z,99891.00
2023-02-11T15:33:00.513Z,99888.60
2023-02-11T15:35:40.937Z,99887.80
2023-02-11T15:38:12.933Z,99885.80
2023-02-11T15:40:40.951Z,99885.00
2023-02-11T15:43:10.709Z,99888.40
2023-02-11T15:46:00.070Z,99893.60
2023-02-11T15:48:42.900Z,99892.00
2023-02-11T15:51:31.434Z,99892.60
2023-02-11T15:54:15.662Z,99891.20
2023-02-11T15:56:49.842Z,99890.40
2023-02-11T15:59:21.042Z,99904.20
2023-02-11T16:01:49.629Z,99902.80
2023-02-11T16:04:22.266Z,99899.80
2023-02-11T16:06:51.424Z,99897.00
2023-02-11T16:09:19.054Z,99893.40
2023-02-11T16:11:47.259Z,99898.00
2023-02-11T16:14:27.193Z,99894.60
2023-02-11T16:17:12.933Z,99906.20
2023-02-11T16:19:47.146Z,99894.80
2023-02-11T16:22:25.347Z,99894.20
2023-02-11T16:24:57.835Z,99896.00
2023-02-11T16:27:34.193Z,99891.60
2023-02-11T16:30:02.629Z,99897.60
2023-02-11T16:32:31.106Z,99905.80
2023-02-11T16:35:01.466Z,99898.60
2023-02-11T16:37:29.186Z,99906.60
2023-02-11T16:39:58.267Z,99902.80
2023-02-11T16:42:26.264Z,99912.40
2023-02-11T16:44:53.966Z,99909.80
2023-02-11T16:47:28.039Z,99904.80
2023-02-11T16:49:56.999Z,99907.60
2023-02-11T16:52:25.619Z,99913.00
2023-02-11T16:54:53.804Z,99922.80
2023-02-11T16:57:26.940Z,99918.20
2023-02-11T16:59:55.920Z,99925.40
2023-02-11T17:02:33.132Z,99925.60
2023-02-11T17:05:06.660Z,99935.20
2023-02-11T17:07:34.508Z,99930.80
2023-02-11T17:10:02.355Z,99935.60
2023-02-11T17:12:30.186Z,99931.60
2023-02-11T17:14:57.870Z,99935.40
2023-02-11T17:17:25.778Z,99946.00
2023-02-11T17:19:53.471Z,99945.00
2023-02-11T17:22:21.224Z,99949.40
2023-02-11T17:24:48.890Z,99950.80
2023-02-11T17:27:17.210Z,99948.00
2023-02-11T17:29:44.961Z,99946.20
2023-02-11T17:32:13.176Z,99945.00
2023-02-11T17:34:41.010Z,99946.80
2023-02-11T17:37:09.659Z,99942.80
2023-02-11T17:39:40.028Z,99944.20
2023-02-11T17:42:08.807Z,99950.00
2023-02-11T17:44:37.323Z,99954.80
2023-02-11T17:47:05.093Z,99951.20
2023-02-11T17:49:32.847Z,99955.00
2023-02-11T17:52:00.657Z,99954.40
2023-02-11T17:54:28.365Z,99959.20
2023-02-11T17:56:58.287Z,99953.80
2023-02-11T17:59:28.537Z,99956.80
2023-02-11T18:01:56.188Z,99958.80
2023-02-11T18:04:23.870Z,99959.00
2023-02-11T18:06:53.641Z,99951.40
2023-02-11T18:09:21.484Z,99956.20
2023-02-11T18:11:52.381Z,99958.80
2023-02-11T18:14:21.699Z,99960.40
2023-02-11T18:16:52.536Z,99962.20
2023-02-11T18:19:21.180Z,99963.60
2023-02-11T18:21:50.375Z,99962.80
2023-02-11T18:24:18.600Z,99960.00
2023-02-11T18:26:46.355Z,99964.00
2023-02-11T18:29:14.130Z,99955.20
2023-02-11T18:31:41.837Z,99959.80
2023-02-11T18:34:11.052Z,99960.40
2023-02-11T18:36:39.525Z,99968.20
2023-02-11T18:39:07.472Z,99972.20
2023-02-11T18:41:35.260Z,99976.60
2023-02-11T18:44:05.220Z,99972.40
2023-02-11T18:46:33.618Z,99973.80
2023-02-11T18:49:01.337Z,99972.20
2023-02-11T18:51:31.782Z,99975.00
2023-02-11T18:53:59.755Z,99972.20
2023-02-11T18:56:27.936Z,99977.20
2023-02-11T18:58:56.577Z,99979.00
2023-02-11T19:01:27.512Z,99974.80
2023-02-11T19:03:58.450Z,99979.00
2023-02-11T19:06:30.571Z,99992.20
2023-02-11T19:09:03.553Z,99990.80
2023-02-11T19:11:52.308Z,99998.00
2023-02-11T19:14:27.396Z,99996.60
2023-02-11T19:16:58.550Z,100001.60
2023-02-11T19:19:30.822Z,100006.60
2023-02-11T19:22:00.614Z,100001.00
2023-02-11T19:24:30.215Z,100000.40
2023-02-11T19:27:02.246Z,100009.00
2023-02-11T19:29:35.315Z,100013.20
2023-02-11T19:32:08.565Z,100015.40
2023-02-11T19:34:41.254Z,100011.80
2023-02-11T19:37:12.872Z,100012.60
2023-02-11T19:39:43.594Z,100011.60
2023-02-11T19:42:12.812Z,100020.60
2023-02-11T19:44:40.636Z,100012.80
2023-02-11T19:47:10.194Z,100021.80
2023-02-11T19:49:38.076Z,100014.40
2023-02-11T19:52:05.793Z,100015.80
2023-02-11T19:54:33.544Z,100011.20
2023-02-11T19:57:01.395Z,100013.60
2023-02-11T19:59:29.202Z,100018.60
2023-02-11T20:01:57.733Z,100018.80
2023-02-11T20:04:25.486Z,100027.00
2023-02-11T20:06:53.614Z,100026.60
2023-02-11T20:09:22.805Z,100033.40
2023-02-11T20:11:50.677Z,100034.20
2023-02-11T20:14:19.264Z,100036.40
2023-02-11T20:16:49.841Z,100043.20
2023-02-11T20:19:21.932Z,100037.80
2023-02-11T20:21:53.714Z,100039.00
2023-02-11T20:24:23.285Z,100033.00
2023-02-11T20:26:55.390Z,100035.80
2023-02-11T20:29:24.482Z,100041.00
2023-02-11T20:31:52.377Z,100045.00
2023-02-11T20:34:21.719Z,100046.60
2023-02-11T20:36:52.321Z,100052.00
2023-02-11T20:39:23.496Z,100056.60
2023-02-11T20:41:53.720Z,100053.40
2023-02-11T20:44:22.507Z,100058.00
2023-02-11T20:46:51.612Z,100057.20
2023-02-11T20:49:23.335Z,100062.60
2023-02-11T20:51:53.821Z,100073.00
2023-02-11T20:54:24.633Z,100077.60
2023-02-11T20:56:54.360Z,100075.80
2023-02-11T20:59:22.976Z,100078.80
2023-02-11T21:01:55.228Z,100081.80
2023-02-11T21:04:27.417Z,100076.40
2023-02-11T21:07:00.274Z,100089.40
2023-02-11T21:09:32.413Z,100095.80
2023-02-11T21:12:03.331Z,100091.20
2023-02-11T21:14:31.451Z,100092.60
2023-02-11T21:16:59.245Z,100095.80
2023-02-11T21:19:27.258Z,100109.60
2023-02-11T21:21:57.159Z,100108.40
2023-02-11T21:24:24.863Z,100104.40
2023-02-11T21:26:52.509Z,100110.20
2023-02-11T21:29:20.383Z,100122.00
2023-02-11T21:31:48.537Z,100123.00
2023-02-11T21:34:16.382Z,100124.60
2023-02-11T21:36:45.219Z,100127.60
2023-02-11T21:39:13.741Z,100141.20
2023-02-11T21:41:41.634Z,100140.40
2023-02-11T21:44:09.359Z,100141.40
2023-02-11T21:46:37.162Z,100142.40
2023-02-11T21:49:04.901Z,100151.20
2023-02-11T21:51:32.644Z,100147.00
2023-02-11T21:54:02.315Z,100154.80
2023-02-11T21:56:33.431Z,100149.60
2023-02-11T21:59:01.415Z,100153.80
2023-02-11T22:01:32.948Z,100147.60
2023-02-11T22:04:01.283Z,100152.20
2023-02-11T22:06:33.648Z,100149.00
2023-02-11T22:09:08.948Z,100146.00
2023-02-11T22:11:37.687Z,100154.40
2023-02-11T22:14:06.025Z,100157.80
2023-02-11T22:16:33.817Z,100158.20
2023-02-11T22:19:07.150Z,100158.60
2023-02-11T22:21:34.925Z,100165.20
2023-02-11T22:24:02.693Z,100173.40
2023-02-11T22:26:30.370Z,100177.00
2023-02-11T22:28:58.121Z,100178.00
2023-02-11T22:31:30.756Z,100184.40
2023-02-11T22:34:00.301Z,100191.40
2023-02-11T22:36:32.693Z,100188.80
2023-02-11T22:39:05.364Z,100195.40
2023-02-11T22:41:33.552Z,100201.40
2023-02-11T22:44:01.359Z,100198.40
2023-02-11T22:46:29.066Z,100207.40
2023-02-11T22:48:56.878Z,100213.80
2023-02-11T22:51:28.529Z,100216.20
2023-02-11T22:54:06.338Z,100212.60
2023-02-11T22:56:35.408Z,100209.80
2023-02-11T22:59:13.479Z,100209.80
2023-02-11T23:01:42.456Z,100211.00
2023-02-11T23:04:14.870Z,100207.00
2023-02-11T23:06:43.507Z,100205.00
2023-02-11T23:09:14.109Z,100203.80
2023-02-11T23:11:42.099Z,100203.40
2023-02-11T23:14:11.998Z,100205.20
2023-02-11T23:16:39.881Z,100207.60
2023-02-11T23:19:09.062Z,100212.80
2023-02-11T23:21:39.221Z,100212.20
2023-02-11T23:24:11.905Z,100212.40
2023-02-11T23:26:42.094Z,100218.00
2023-02-11T23:29:10.331Z,100213.60
2023-02-11T23:31:43.910Z,100221.20
2023-02-11T23:34:18.451Z,100224.60
2023-02-11T23:36:46.161Z,100223.60
2023-02-11T23:39:16.076Z,100225.60
2023-02-11T23:41:45.477Z,100227.40
2023-02-11T23:44:13.135Z,100226.60
2023-02-11T23:46:40.782Z,100228.80
2023-02-11T23:49:08.787Z,100226.00
2023-02-11T23:51:36.496Z,100233.40
2023-02-11T23:54:04.271Z,100239.40
2023-02-11T23:56:32.341Z,100237.80
2023-02-11T23:58:59.993Z,100246.20
